sensor_id;sensor_type;location;lat;lon;timestamp;P1;durP1;ratioP1;P2;durP2;ratioP2
13571;SDS011;6857;53.484;10.216;2023-07-31T00:02:23;4.90;;;3.07;;
13571;SDS011;6857;53.484;10.216;2023-07-31T00:04:49;5.13;;;3.03;;
13571;SDS011;6857;53.484;10.216;2023-07-31T00:07:15;9.77;;;3.33;;
13571;SDS011;6857;53.484;10.216;2023-07-31T00:09:41;6.13;;;3.20;;
13571;SDS011;6857;53.484;10.216;2023-07-31T00:12:07;6.97;;;3.00;;
13571;SDS011;6857;53.484;10.216;2023-07-31T00:14:33;6.80;;;3.23;;
13571;SDS011;6857;53.484;10.216;2023-07-31T00:16:59;6.87;;;3.20;;
13571;SDS011;6857;53.484;10.216;2023-07-31T00:19:25;5.90;;;2.97;;
13571;SDS011;6857;53.484;10.216;2023-07-31T00:21:51;7.07;;;3.47;;
13571;SDS011;6857;53.484;10.216;2023-07-31T00:24:17;4.87;;;2.83;;
13571;SDS011;6857;53.484;10.216;2023-07-31T00:26:43;6.17;;;2.80;;
13571;SDS011;6857;53.484;10.216;2023-07-31T00:29:09;4.77;;;3.20;;
13571;SDS011;6857;53.484;10.216;2023-07-31T00:31:35;7.33;;;2.70;;
13571;SDS011;6857;53.484;10.216;2023-07-31T00:34:01;7.00;;;3.03;;
13571;SDS011;6857;53.484;10.216;2023-07-31T00:36:27;7.37;;;3.10;;
13571;SDS011;6857;53.484;10.216;2023-07-31T00:38:53;9.73;;;3.43;;
13571;SDS011;6857;53.484;10.216;2023-07-31T00:41:19;7.13;;;3.00;;
13571;SDS011;6857;53.484;10.216;2023-07-31T00:43:45;8.67;;;3.10;;
13571;SDS011;6857;53.484;10.216;2023-07-31T00:46:10;5.60;;;2.63;;
13571;SDS011;6857;53.484;10.216;2023-07-31T00:48:37;6.03;;;3.33;;
13571;SDS011;6857;53.484;10.216;2023-07-31T00:51:03;7.30;;;2.90;;
13571;SDS011;6857;53.484;10.216;2023-07-31T00:53:29;7.20;;;2.87;;
13571;SDS011;6857;53.484;10.216;2023-07-31T00:55:55;5.03;;;2.60;;
13571;SDS011;6857;53.484;10.216;2023-07-31T00:58:21;5.87;;;2.70;;
13571;SDS011;6857;53.484;10.216;2023-07-31T01:00:47;7.57;;;2.67;;
13571;SDS011;6857;53.484;10.216;2023-07-31T01:03:15;6.13;;;2.60;;
13571;SDS011;6857;53.484;10.216;2023-07-31T01:08:29;18.17;;;3.20;;
13571;SDS011;6857;53.484;10.216;2023-07-31T01:11:00;5.70;;;2.83;;
13571;SDS011;6857;53.484;10.216;2023-07-31T01:13:28;7.20;;;2.80;;
13571;SDS011;6857;53.484;10.216;2023-07-31T01:15:54;7.97;;;2.83;;
13571;SDS011;6857;53.484;10.216;2023-07-31T01:18:20;6.23;;;2.43;;
13571;SDS011;6857;53.484;10.216;2023-07-31T01:20:47;5.47;;;2.43;;
13571;SDS011;6857;53.484;10.216;2023-07-31T01:29:09;9.03;;;3.00;;
13571;SDS011;6857;53.484;10.216;2023-07-31T01:31:23;8.40;;;2.70;;
13571;SDS011;6857;53.484;10.216;2023-07-31T01:33:50;8.47;;;2.90;;
13571;SDS011;6857;53.484;10.216;2023-07-31T01:36:17;5.07;;;2.80;;
13571;SDS011;6857;53.484;10.216;2023-07-31T01:38:43;5.40;;;2.77;;
13571;SDS011;6857;53.484;10.216;2023-07-31T01:41:09;4.20;;;2.60;;
13571;SDS011;6857;53.484;10.216;2023-07-31T01:43:35;5.53;;;2.87;;
13571;SDS011;6857;53.484;10.216;2023-07-31T01:46:00;6.07;;;2.73;;
13571;SDS011;6857;53.484;10.216;2023-07-31T01:48:26;3.77;;;2.40;;
13571;SDS011;6857;53.484;10.216;2023-07-31T01:50:52;5.90;;;2.77;;
13571;SDS011;6857;53.484;10.216;2023-07-31T01:53:18;7.87;;;2.63;;
13571;SDS011;6857;53.484;10.216;2023-07-31T01:55:44;5.03;;;2.53;;
13571;SDS011;6857;53.484;10.216;2023-07-31T01:58:10;4.83;;;2.63;;
13571;SDS011;6857;53.484;10.216;2023-07-31T02:00:36;9.63;;;3.30;;
13571;SDS011;6857;53.484;10.216;2023-07-31T02:03:02;6.67;;;2.80;;
13571;SDS011;6857;53.484;10.216;2023-07-31T02:05:28;6.00;;;2.70;;
13571;SDS011;6857;53.484;10.216;2023-07-31T02:07:54;9.73;;;2.80;;
13571;SDS011;6857;53.484;10.216;2023-07-31T02:10:20;5.47;;;2.50;;
13571;SDS011;6857;53.484;10.216;2023-07-31T02:12:46;4.10;;;2.40;;
13571;SDS011;6857;53.484;10.216;2023-07-31T02:15:12;7.63;;;2.43;;
13571;SDS011;6857;53.484;10.216;2023-07-31T02:17:38;6.97;;;2.70;;
13571;SDS011;6857;53.484;10.216;2023-07-31T02:20:04;5.63;;;2.77;;
13571;SDS011;6857;53.484;10.216;2023-07-31T02:22:30;5.10;;;2.43;;
13571;SDS011;6857;53.484;10.216;2023-07-31T02:24:56;6.63;;;3.07;;
13571;SDS011;6857;53.484;10.216;2023-07-31T02:27:22;7.17;;;3.17;;
13571;SDS011;6857;53.484;10.216;2023-07-31T02:29:52;7.90;;;3.33;;
13571;SDS011;6857;53.484;10.216;2023-07-31T02:32:18;7.47;;;2.93;;
13571;SDS011;6857;53.484;10.216;2023-07-31T02:34:44;7.60;;;2.80;;
13571;SDS011;6857;53.484;10.216;2023-07-31T02:37:09;5.43;;;3.00;;
13571;SDS011;6857;53.484;10.216;2023-07-31T02:39:35;9.63;;;3.23;;
13571;SDS011;6857;53.484;10.216;2023-07-31T02:42:01;8.63;;;2.73;;
13571;SDS011;6857;53.484;10.216;2023-07-31T02:44:27;9.90;;;3.00;;
13571;SDS011;6857;53.484;10.216;2023-07-31T02:46:53;8.27;;;3.03;;
13571;SDS011;6857;53.484;10.216;2023-07-31T02:49:19;6.13;;;3.03;;
13571;SDS011;6857;53.484;10.216;2023-07-31T02:51:45;12.27;;;3.70;;
13571;SDS011;6857;53.484;10.216;2023-07-31T02:54:11;8.37;;;3.50;;
13571;SDS011;6857;53.484;10.216;2023-07-31T02:56:37;7.00;;;3.20;;
13571;SDS011;6857;53.484;10.216;2023-07-31T02:59:03;7.83;;;3.40;;
13571;SDS011;6857;53.484;10.216;2023-07-31T03:01:29;6.07;;;3.30;;
13571;SDS011;6857;53.484;10.216;2023-07-31T03:03:55;6.27;;;3.47;;
13571;SDS011;6857;53.484;10.216;2023-07-31T03:06:21;6.80;;;3.17;;
13571;SDS011;6857;53.484;10.216;2023-07-31T03:08:47;5.90;;;3.30;;
13571;SDS011;6857;53.484;10.216;2023-07-31T03:11:13;7.77;;;3.33;;
13571;SDS011;6857;53.484;10.216;2023-07-31T03:13:39;5.27;;;2.97;;
13571;SDS011;6857;53.484;10.216;2023-07-31T03:16:05;6.70;;;3.00;;
13571;SDS011;6857;53.484;10.216;2023-07-31T03:18:31;6.63;;;3.20;;
13571;SDS011;6857;53.484;10.216;2023-07-31T03:20:57;7.20;;;3.40;;
13571;SDS011;6857;53.484;10.216;2023-07-31T03:23:23;5.97;;;3.40;;
13571;SDS011;6857;53.484;10.216;2023-07-31T03:25:56;7.97;;;3.60;;
13571;SDS011;6857;53.484;10.216;2023-07-31T03:28:22;7.33;;;4.20;;
13571;SDS011;6857;53.484;10.216;2023-07-31T03:30:48;5.17;;;3.43;;
13571;SDS011;6857;53.484;10.216;2023-07-31T03:33:14;8.40;;;3.80;;
13571;SDS011;6857;53.484;10.216;2023-07-31T03:35:40;8.60;;;4.43;;
13571;SDS011;6857;53.484;10.216;2023-07-31T03:38:06;8.87;;;3.60;;
13571;SDS011;6857;53.484;10.216;2023-07-31T03:40:32;7.67;;;3.70;;
13571;SDS011;6857;53.484;10.216;2023-07-31T03:42:58;7.23;;;3.40;;
13571;SDS011;6857;53.484;10.216;2023-07-31T03:45:24;7.10;;;3.50;;
13571;SDS011;6857;53.484;10.216;2023-07-31T03:47:50;3.90;;;3.47;;
13571;SDS011;6857;53.484;10.216;2023-07-31T03:50:16;7.43;;;3.87;;
13571;SDS011;6857;53.484;10.216;2023-07-31T03:52:42;6.97;;;3.83;;
13571;SDS011;6857;53.484;10.216;2023-07-31T03:55:08;8.30;;;3.90;;
13571;SDS011;6857;53.484;10.216;2023-07-31T03:57:34;8.03;;;4.67;;
13571;SDS011;6857;53.484;10.216;2023-07-31T04:00:00;8.50;;;4.83;;
13571;SDS011;6857;53.484;10.216;2023-07-31T04:02:26;7.17;;;4.40;;
13571;SDS011;6857;53.484;10.216;2023-07-31T04:04:52;7.97;;;4.80;;
13571;SDS011;6857;53.484;10.216;2023-07-31T04:07:18;6.37;;;4.53;;
13571;SDS011;6857;53.484;10.216;2023-07-31T04:09:44;6.10;;;4.83;;
13571;SDS011;6857;53.484;10.216;2023-07-31T04:12:10;7.33;;;5.20;;
13571;SDS011;6857;53.484;10.216;2023-07-31T04:14:35;6.60;;;5.00;;
13571;SDS011;6857;53.484;10.216;2023-07-31T04:17:01;9.03;;;5.67;;
13571;SDS011;6857;53.484;10.216;2023-07-31T04:19:27;8.00;;;5.73;;
13571;SDS011;6857;53.484;10.216;2023-07-31T04:21:53;5.70;;;5.10;;
13571;SDS011;6857;53.484;10.216;2023-07-31T04:24:19;6.00;;;5.17;;
13571;SDS011;6857;53.484;10.216;2023-07-31T04:26:49;6.70;;;5.70;;
13571;SDS011;6857;53.484;10.216;2023-07-31T04:29:16;9.73;;;5.70;;
13571;SDS011;6857;53.484;10.216;2023-07-31T04:31:42;7.63;;;5.53;;
13571;SDS011;6857;53.484;10.216;2023-07-31T04:34:08;6.13;;;5.30;;
13571;SDS011;6857;53.484;10.216;2023-07-31T04:36:34;6.23;;;5.40;;
13571;SDS011;6857;53.484;10.216;2023-07-31T04:39:00;6.73;;;5.33;;
13571;SDS011;6857;53.484;10.216;2023-07-31T04:41:26;7.93;;;5.20;;
13571;SDS011;6857;53.484;10.216;2023-07-31T04:43:53;5.90;;;5.30;;
13571;SDS011;6857;53.484;10.216;2023-07-31T04:46:19;6.87;;;5.40;;
13571;SDS011;6857;53.484;10.216;2023-07-31T04:48:44;6.90;;;6.20;;
13571;SDS011;6857;53.484;10.216;2023-07-31T04:51:10;8.07;;;6.03;;
13571;SDS011;6857;53.484;10.216;2023-07-31T04:53:36;10.50;;;8.10;;
13571;SDS011;6857;53.484;10.216;2023-07-31T04:56:02;6.97;;;5.70;;
13571;SDS011;6857;53.484;10.216;2023-07-31T04:58:29;6.70;;;6.00;;
13571;SDS011;6857;53.484;10.216;2023-07-31T05:00:54;7.37;;;5.83;;
13571;SDS011;6857;53.484;10.216;2023-07-31T05:03:20;7.10;;;6.00;;
13571;SDS011;6857;53.484;10.216;2023-07-31T05:05:47;6.37;;;5.77;;
13571;SDS011;6857;53.484;10.216;2023-07-31T05:08:13;8.47;;;5.60;;
13571;SDS011;6857;53.484;10.216;2023-07-31T05:10:39;7.20;;;5.97;;
13571;SDS011;6857;53.484;10.216;2023-07-31T05:13:05;7.80;;;6.20;;
13571;SDS011;6857;53.484;10.216;2023-07-31T05:15:30;6.93;;;6.23;;
13571;SDS011;6857;53.484;10.216;2023-07-31T05:17:57;6.07;;;5.47;;
13571;SDS011;6857;53.484;10.216;2023-07-31T05:20:22;7.77;;;5.50;;
13571;SDS011;6857;53.484;10.216;2023-07-31T05:22:48;8.20;;;6.87;;
13571;SDS011;6857;53.484;10.216;2023-07-31T05:25:16;8.23;;;6.67;;
13571;SDS011;6857;53.484;10.216;2023-07-31T05:27:42;6.23;;;5.63;;
13571;SDS011;6857;53.484;10.216;2023-07-31T05:30:08;7.07;;;6.37;;
13571;SDS011;6857;53.484;10.216;2023-07-31T05:32:34;7.97;;;6.00;;
13571;SDS011;6857;53.484;10.216;2023-07-31T05:35:00;6.43;;;5.83;;
13571;SDS011;6857;53.484;10.216;2023-07-31T05:37:26;8.97;;;5.60;;
13571;SDS011;6857;53.484;10.216;2023-07-31T05:39:52;6.80;;;6.20;;
13571;SDS011;6857;53.484;10.216;2023-07-31T05:42:18;6.53;;;5.63;;
13571;SDS011;6857;53.484;10.216;2023-07-31T05:44:44;5.80;;;5.20;;
13571;SDS011;6857;53.484;10.216;2023-07-31T05:47:10;9.70;;;7.87;;
13571;SDS011;6857;53.484;10.216;2023-07-31T05:49:36;6.53;;;5.93;;
13571;SDS011;6857;53.484;10.216;2023-07-31T05:52:02;6.93;;;6.23;;
13571;SDS011;6857;53.484;10.216;2023-07-31T05:54:28;7.00;;;6.30;;
13571;SDS011;6857;53.484;10.216;2023-07-31T05:56:54;7.07;;;6.37;;
13571;SDS011;6857;53.484;10.216;2023-07-31T05:59:20;8.80;;;7.17;;
13571;SDS011;6857;53.484;10.216;2023-07-31T06:01:46;7.07;;;5.37;;
13571;SDS011;6857;53.484;10.216;2023-07-31T06:04:12;6.70;;;6.10;;
13571;SDS011;6857;53.484;10.216;2023-07-31T06:06:38;7.77;;;7.00;;
13571;SDS011;6857;53.484;10.216;2023-07-31T06:09:03;6.03;;;5.20;;
13571;SDS011;6857;53.484;10.216;2023-07-31T06:11:29;7.07;;;6.37;;
13571;SDS011;6857;53.484;10.216;2023-07-31T06:13:55;14.47;;;11.60;;
13571;SDS011;6857;53.484;10.216;2023-07-31T06:16:22;7.53;;;6.87;;
13571;SDS011;6857;53.484;10.216;2023-07-31T06:18:48;7.57;;;6.03;;
13571;SDS011;6857;53.484;10.216;2023-07-31T06:21:14;5.87;;;5.37;;
13571;SDS011;6857;53.484;10.216;2023-07-31T06:23:40;7.97;;;5.83;;
13571;SDS011;6857;53.484;10.216;2023-07-31T06:26:06;6.30;;;5.70;;
13571;SDS011;6857;53.484;10.216;2023-07-31T06:28:32;5.40;;;4.90;;
13571;SDS011;6857;53.484;10.216;2023-07-31T06:30:58;5.27;;;4.77;;
13571;SDS011;6857;53.484;10.216;2023-07-31T06:33:24;5.63;;;4.87;;
13571;SDS011;6857;53.484;10.216;2023-07-31T06:35:50;5.20;;;4.70;;
13571;SDS011;6857;53.484;10.216;2023-07-31T06:38:19;5.30;;;4.83;;
13571;SDS011;6857;53.484;10.216;2023-07-31T06:40:45;5.47;;;5.03;;
13571;SDS011;6857;53.484;10.216;2023-07-31T06:43:10;5.13;;;4.63;;
13571;SDS011;6857;53.484;10.216;2023-07-31T06:45:36;5.03;;;4.50;;
13571;SDS011;6857;53.484;10.216;2023-07-31T06:48:03;4.80;;;4.30;;
13571;SDS011;6857;53.484;10.216;2023-07-31T06:50:29;4.70;;;4.30;;
13571;SDS011;6857;53.484;10.216;2023-07-31T06:52:55;3.83;;;3.53;;
13571;SDS011;6857;53.484;10.216;2023-07-31T06:55:22;5.47;;;3.93;;
13571;SDS011;6857;53.484;10.216;2023-07-31T06:57:48;4.20;;;3.90;;
13571;SDS011;6857;53.484;10.216;2023-07-31T07:00:14;4.67;;;4.23;;
13571;SDS011;6857;53.484;10.216;2023-07-31T07:02:41;3.80;;;3.50;;
13571;SDS011;6857;53.484;10.216;2023-07-31T07:05:07;3.70;;;3.40;;
13571;SDS011;6857;53.484;10.216;2023-07-31T07:07:33;4.57;;;3.50;;
13571;SDS011;6857;53.484;10.216;2023-07-31T07:09:59;4.17;;;3.53;;
13571;SDS011;6857;53.484;10.216;2023-07-31T07:12:25;3.50;;;3.20;;
13571;SDS011;6857;53.484;10.216;2023-07-31T07:14:51;3.50;;;3.20;;
13571;SDS011;6857;53.484;10.216;2023-07-31T07:17:18;3.10;;;2.80;;
13571;SDS011;6857;53.484;10.216;2023-07-31T07:19:44;3.63;;;2.90;;
13571;SDS011;6857;53.484;10.216;2023-07-31T07:22:13;3.23;;;2.87;;
13571;SDS011;6857;53.484;10.216;2023-07-31T07:24:39;2.73;;;2.53;;
13571;SDS011;6857;53.484;10.216;2023-07-31T07:27:05;3.50;;;3.20;;
13571;SDS011;6857;53.484;10.216;2023-07-31T07:29:31;4.87;;;3.67;;
13571;SDS011;6857;53.484;10.216;2023-07-31T07:31:57;3.13;;;2.87;;
13571;SDS011;6857;53.484;10.216;2023-07-31T07:34:25;3.20;;;2.90;;
13571;SDS011;6857;53.484;10.216;2023-07-31T07:36:51;3.37;;;3.10;;
13571;SDS011;6857;53.484;10.216;2023-07-31T07:39:17;3.00;;;2.80;;
13571;SDS011;6857;53.484;10.216;2023-07-31T07:41:42;4.63;;;3.80;;
13571;SDS011;6857;53.484;10.216;2023-07-31T07:44:08;2.70;;;2.50;;
13571;SDS011;6857;53.484;10.216;2023-07-31T07:46:34;4.93;;;4.30;;
13571;SDS011;6857;53.484;10.216;2023-07-31T07:49:00;3.90;;;3.23;;
13571;SDS011;6857;53.484;10.216;2023-07-31T07:51:26;2.90;;;2.70;;
13571;SDS011;6857;53.484;10.216;2023-07-31T07:53:52;3.10;;;2.80;;
13571;SDS011;6857;53.484;10.216;2023-07-31T07:56:18;2.70;;;2.50;;
13571;SDS011;6857;53.484;10.216;2023-07-31T07:58:44;2.70;;;2.50;;
13571;SDS011;6857;53.484;10.216;2023-07-31T08:01:10;2.60;;;2.40;;
13571;SDS011;6857;53.484;10.216;2023-07-31T08:03:36;3.07;;;2.40;;
13571;SDS011;6857;53.484;10.216;2023-07-31T08:06:02;2.50;;;2.30;;
13571;SDS011;6857;53.484;10.216;2023-07-31T08:08:28;2.70;;;2.50;;
13571;SDS011;6857;53.484;10.216;2023-07-31T08:10:54;1.80;;;1.70;;
13571;SDS011;6857;53.484;10.216;2023-07-31T08:13:20;1.83;;;1.73;;
13571;SDS011;6857;53.484;10.216;2023-07-31T08:15:46;1.70;;;1.60;;
13571;SDS011;6857;53.484;10.216;2023-07-31T08:18:12;2.40;;;1.70;;
13571;SDS011;6857;53.484;10.216;2023-07-31T08:20:38;2.67;;;2.27;;
13571;SDS011;6857;53.484;10.216;2023-07-31T08:23:04;2.40;;;1.90;;
13571;SDS011;6857;53.484;10.216;2023-07-31T08:25:30;1.47;;;1.37;;
13571;SDS011;6857;53.484;10.216;2023-07-31T08:27:56;1.40;;;1.30;;
13571;SDS011;6857;53.484;10.216;2023-07-31T08:30:22;2.23;;;1.60;;
13571;SDS011;6857;53.484;10.216;2023-07-31T08:32:48;4.53;;;2.73;;
13571;SDS011;6857;53.484;10.216;2023-07-31T08:35:14;1.47;;;1.37;;
13571;SDS011;6857;53.484;10.216;2023-07-31T08:37:41;1.00;;;1.00;;
13571;SDS011;6857;53.484;10.216;2023-07-31T08:40:07;1.80;;;1.70;;
13571;SDS011;6857;53.484;10.216;2023-07-31T08:42:33;2.20;;;2.00;;
13571;SDS011;6857;53.484;10.216;2023-07-31T08:44:59;2.30;;;2.03;;
13571;SDS011;6857;53.484;10.216;2023-07-31T08:47:25;1.37;;;1.27;;
13571;SDS011;6857;53.484;10.216;2023-07-31T08:49:53;1.60;;;1.50;;
13571;SDS011;6857;53.484;10.216;2023-07-31T08:52:20;1.50;;;1.40;;
13571;SDS011;6857;53.484;10.216;2023-07-31T08:54:46;2.10;;;1.90;;
13571;SDS011;6857;53.484;10.216;2023-07-31T08:57:12;1.87;;;1.30;;
13571;SDS011;6857;53.484;10.216;2023-07-31T08:59:38;2.13;;;1.20;;
13571;SDS011;6857;53.484;10.216;2023-07-31T09:02:05;1.20;;;1.10;;
13571;SDS011;6857;53.484;10.216;2023-07-31T09:04:32;1.83;;;1.40;;
13571;SDS011;6857;53.484;10.216;2023-07-31T09:06:59;1.30;;;1.20;;
13571;SDS011;6857;53.484;10.216;2023-07-31T09:09:25;1.10;;;1.00;;
13571;SDS011;6857;53.484;10.216;2023-07-31T09:11:51;1.13;;;1.03;;
13571;SDS011;6857;53.484;10.216;2023-07-31T09:14:18;1.73;;;1.00;;
13571;SDS011;6857;53.484;10.216;2023-07-31T09:16:54;1.07;;;0.90;;
13571;SDS011;6857;53.484;10.216;2023-07-31T09:19:27;1.20;;;1.10;;
13571;SDS011;6857;53.484;10.216;2023-07-31T09:21:53;1.37;;;1.20;;
13571;SDS011;6857;53.484;10.216;2023-07-31T09:24:28;1.97;;;1.80;;
13571;SDS011;6857;53.484;10.216;2023-07-31T09:26:55;1.20;;;1.10;;
13571;SDS011;6857;53.484;10.216;2023-07-31T09:29:21;1.00;;;1.00;;
13571;SDS011;6857;53.484;10.216;2023-07-31T09:31:47;1.60;;;1.30;;
13571;SDS011;6857;53.484;10.216;2023-07-31T09:34:13;1.30;;;1.17;;
13571;SDS011;6857;53.484;10.216;2023-07-31T09:36:49;3.83;;;2.33;;
13571;SDS011;6857;53.484;10.216;2023-07-31T09:39:17;0.90;;;0.90;;
13571;SDS011;6857;53.484;10.216;2023-07-31T09:41:46;0.80;;;0.80;;
13571;SDS011;6857;53.484;10.216;2023-07-31T09:44:13;1.33;;;1.23;;
13571;SDS011;6857;53.484;10.216;2023-07-31T09:46:39;1.00;;;0.60;;
13571;SDS011;6857;53.484;10.216;2023-07-31T09:49:06;1.30;;;1.07;;
13571;SDS011;6857;53.484;10.216;2023-07-31T09:51:34;9.43;;;4.23;;
13571;SDS011;6857;53.484;10.216;2023-07-31T09:54:03;1.33;;;1.00;;
13571;SDS011;6857;53.484;10.216;2023-07-31T09:56:29;3.83;;;2.70;;
13571;SDS011;6857;53.484;10.216;2023-07-31T09:58:57;1.93;;;0.83;;
13571;SDS011;6857;53.484;10.216;2023-07-31T10:01:23;0.40;;;0.40;;
13571;SDS011;6857;53.484;10.216;2023-07-31T10:03:49;0.40;;;0.40;;
13571;SDS011;6857;53.484;10.216;2023-07-31T10:06:15;3.07;;;0.60;;
13571;SDS011;6857;53.484;10.216;2023-07-31T10:08:43;1.43;;;0.43;;
13571;SDS011;6857;53.484;10.216;2023-07-31T10:11:11;0.60;;;0.60;;
13571;SDS011;6857;53.484;10.216;2023-07-31T10:13:39;0.50;;;0.50;;
13571;SDS011;6857;53.484;10.216;2023-07-31T10:16:05;3.13;;;1.93;;
13571;SDS011;6857;53.484;10.216;2023-07-31T10:18:31;3.17;;;1.77;;
13571;SDS011;6857;53.484;10.216;2023-07-31T10:20:57;3.70;;;3.00;;
13571;SDS011;6857;53.484;10.216;2023-07-31T10:23:24;5.87;;;3.50;;
13571;SDS011;6857;53.484;10.216;2023-07-31T10:25:50;7.10;;;4.40;;
13571;SDS011;6857;53.484;10.216;2023-07-31T10:28:19;8.50;;;5.37;;
13571;SDS011;6857;53.484;10.216;2023-07-31T10:30:46;7.63;;;5.53;;
13571;SDS011;6857;53.484;10.216;2023-07-31T10:33:12;10.60;;;5.73;;
13571;SDS011;6857;53.484;10.216;2023-07-31T10:35:38;12.50;;;6.33;;
13571;SDS011;6857;53.484;10.216;2023-07-31T10:38:11;12.87;;;8.20;;
13571;SDS011;6857;53.484;10.216;2023-07-31T10:40:37;13.73;;;8.43;;
13571;SDS011;6857;53.484;10.216;2023-07-31T10:43:03;14.33;;;9.33;;
13571;SDS011;6857;53.484;10.216;2023-07-31T10:48:34;19.20;;;10.33;;
13571;SDS011;6857;53.484;10.216;2023-07-31T10:50:56;16.07;;;9.40;;
13571;SDS011;6857;53.484;10.216;2023-07-31T10:53:29;14.60;;;9.90;;
13571;SDS011;6857;53.484;10.216;2023-07-31T10:55:58;16.23;;;9.43;;
13571;SDS011;6857;53.484;10.216;2023-07-31T10:58:25;16.60;;;9.70;;
13571;SDS011;6857;53.484;10.216;2023-07-31T11:00:54;14.07;;;9.30;;
13571;SDS011;6857;53.484;10.216;2023-07-31T11:03:24;13.80;;;9.20;;
13571;SDS011;6857;53.484;10.216;2023-07-31T11:08:28;13.63;;;8.27;;
13571;SDS011;6857;53.484;10.216;2023-07-31T11:13:29;13.13;;;7.37;;
13571;SDS011;6857;53.484;10.216;2023-07-31T11:15:55;10.93;;;7.00;;
13571;SDS011;6857;53.484;10.216;2023-07-31T11:18:21;12.70;;;6.47;;
13571;SDS011;6857;53.484;10.216;2023-07-31T11:20:47;8.37;;;5.20;;
13571;SDS011;6857;53.484;10.216;2023-07-31T11:23:15;7.97;;;5.17;;
13571;SDS011;6857;53.484;10.216;2023-07-31T11:25:41;7.83;;;5.67;;
13571;SDS011;6857;53.484;10.216;2023-07-31T11:28:08;8.80;;;5.10;;
13571;SDS011;6857;53.484;10.216;2023-07-31T11:30:35;7.60;;;5.00;;
13571;SDS011;6857;53.484;10.216;2023-07-31T11:33:01;7.20;;;4.80;;
13571;SDS011;6857;53.484;10.216;2023-07-31T11:35:28;7.03;;;4.63;;
13571;SDS011;6857;53.484;10.216;2023-07-31T11:37:54;5.27;;;4.33;;
13571;SDS011;6857;53.484;10.216;2023-07-31T11:40:20;5.87;;;5.10;;
13571;SDS011;6857;53.484;10.216;2023-07-31T11:42:47;7.53;;;4.90;;
13571;SDS011;6857;53.484;10.216;2023-07-31T11:45:13;7.47;;;5.03;;
13571;SDS011;6857;53.484;10.216;2023-07-31T11:47:39;5.40;;;4.23;;
13571;SDS011;6857;53.484;10.216;2023-07-31T11:50:06;9.23;;;4.60;;
13571;SDS011;6857;53.484;10.216;2023-07-31T11:52:37;5.10;;;4.17;;
13571;SDS011;6857;53.484;10.216;2023-07-31T11:55:04;8.83;;;4.90;;
13571;SDS011;6857;53.484;10.216;2023-07-31T11:57:31;5.60;;;4.20;;
13571;SDS011;6857;53.484;10.216;2023-07-31T11:59:58;7.00;;;4.37;;
13571;SDS011;6857;53.484;10.216;2023-07-31T12:02:24;6.17;;;4.47;;
13571;SDS011;6857;53.484;10.216;2023-07-31T12:04:50;5.57;;;3.80;;
13571;SDS011;6857;53.484;10.216;2023-07-31T12:07:16;6.17;;;3.73;;
13571;SDS011;6857;53.484;10.216;2023-07-31T12:09:54;5.80;;;3.27;;
13571;SDS011;6857;53.484;10.216;2023-07-31T12:12:21;4.87;;;3.30;;
13571;SDS011;6857;53.484;10.216;2023-07-31T12:14:47;3.30;;;3.00;;
13571;SDS011;6857;53.484;10.216;2023-07-31T12:17:13;4.70;;;3.10;;
13571;SDS011;6857;53.484;10.216;2023-07-31T12:19:40;3.77;;;2.77;;
13571;SDS011;6857;53.484;10.216;2023-07-31T12:22:12;4.27;;;2.87;;
13571;SDS011;6857;53.484;10.216;2023-07-31T12:24:39;2.97;;;2.53;;
13571;SDS011;6857;53.484;10.216;2023-07-31T12:27:11;5.13;;;2.80;;
13571;SDS011;6857;53.484;10.216;2023-07-31T12:29:37;3.87;;;3.03;;
13571;SDS011;6857;53.484;10.216;2023-07-31T12:32:04;3.93;;;2.50;;
13571;SDS011;6857;53.484;10.216;2023-07-31T12:34:30;3.90;;;2.57;;
13571;SDS011;6857;53.484;10.216;2023-07-31T12:36:56;3.60;;;2.23;;
13571;SDS011;6857;53.484;10.216;2023-07-31T12:39:23;3.70;;;2.43;;
13571;SDS011;6857;53.484;10.216;2023-07-31T12:41:49;2.53;;;2.30;;
13571;SDS011;6857;53.484;10.216;2023-07-31T12:44:15;3.33;;;1.90;;
13571;SDS011;6857;53.484;10.216;2023-07-31T12:46:41;3.00;;;2.10;;
13571;SDS011;6857;53.484;10.216;2023-07-31T12:49:07;4.60;;;2.40;;
13571;SDS011;6857;53.484;10.216;2023-07-31T12:51:33;2.60;;;2.40;;
13571;SDS011;6857;53.484;10.216;2023-07-31T12:53:59;2.40;;;2.10;;
13571;SDS011;6857;53.484;10.216;2023-07-31T12:56:25;2.53;;;2.00;;
13571;SDS011;6857;53.484;10.216;2023-07-31T12:58:51;2.30;;;2.10;;
13571;SDS011;6857;53.484;10.216;2023-07-31T13:01:16;3.23;;;2.17;;
13571;SDS011;6857;53.484;10.216;2023-07-31T13:03:42;2.60;;;1.90;;
13571;SDS011;6857;53.484;10.216;2023-07-31T13:06:08;1.70;;;1.60;;
13571;SDS011;6857;53.484;10.216;2023-07-31T13:08:34;2.43;;;1.90;;
13571;SDS011;6857;53.484;10.216;2023-07-31T13:11:00;3.17;;;2.00;;
13571;SDS011;6857;53.484;10.216;2023-07-31T13:13:26;1.80;;;1.70;;
13571;SDS011;6857;53.484;10.216;2023-07-31T13:15:52;1.87;;;1.70;;
13571;SDS011;6857;53.484;10.216;2023-07-31T13:18:18;2.53;;;2.20;;
13571;SDS011;6857;53.484;10.216;2023-07-31T13:20:44;2.83;;;1.73;;
13571;SDS011;6857;53.484;10.216;2023-07-31T13:23:10;2.27;;;2.07;;
13571;SDS011;6857;53.484;10.216;2023-07-31T13:25:36;2.40;;;1.83;;
13571;SDS011;6857;53.484;10.216;2023-07-31T13:28:02;1.90;;;1.80;;
13571;SDS011;6857;53.484;10.216;2023-07-31T13:30:28;1.60;;;1.50;;
13571;SDS011;6857;53.484;10.216;2023-07-31T13:32:54;1.70;;;1.60;;
13571;SDS011;6857;53.484;10.216;2023-07-31T13:35:20;1.60;;;1.50;;
13571;SDS011;6857;53.484;10.216;2023-07-31T13:37:46;2.20;;;1.30;;
13571;SDS011;6857;53.484;10.216;2023-07-31T13:40:12;3.20;;;1.40;;
13571;SDS011;6857;53.484;10.216;2023-07-31T13:42:38;2.97;;;1.63;;
13571;SDS011;6857;53.484;10.216;2023-07-31T13:45:04;2.27;;;1.80;;
13571;SDS011;6857;53.484;10.216;2023-07-31T13:47:30;2.00;;;1.83;;
13571;SDS011;6857;53.484;10.216;2023-07-31T13:49:57;1.83;;;1.73;;
13571;SDS011;6857;53.484;10.216;2023-07-31T13:52:23;2.80;;;1.90;;
13571;SDS011;6857;53.484;10.216;2023-07-31T13:54:49;1.70;;;1.60;;
13571;SDS011;6857;53.484;10.216;2023-07-31T13:57:15;2.97;;;2.50;;
13571;SDS011;6857;53.484;10.216;2023-07-31T13:59:41;5.63;;;3.97;;
13571;SDS011;6857;53.484;10.216;2023-07-31T14:02:07;1.50;;;1.40;;
13571;SDS011;6857;53.484;10.216;2023-07-31T14:04:33;1.47;;;1.37;;
13571;SDS011;6857;53.484;10.216;2023-07-31T14:06:59;2.00;;;1.47;;
13571;SDS011;6857;53.484;10.216;2023-07-31T14:09:25;1.70;;;1.60;;
13571;SDS011;6857;53.484;10.216;2023-07-31T14:11:52;1.77;;;1.40;;
13571;SDS011;6857;53.484;10.216;2023-07-31T14:14:18;1.43;;;1.33;;
13571;SDS011;6857;53.484;10.216;2023-07-31T14:16:44;1.80;;;1.70;;
13571;SDS011;6857;53.484;10.216;2023-07-31T14:19:10;1.57;;;1.47;;
13571;SDS011;6857;53.484;10.216;2023-07-31T14:21:36;1.57;;;1.37;;
13571;SDS011;6857;53.484;10.216;2023-07-31T14:24:02;1.60;;;1.50;;
13571;SDS011;6857;53.484;10.216;2023-07-31T14:26:28;1.20;;;1.07;;
13571;SDS011;6857;53.484;10.216;2023-07-31T14:28:54;1.20;;;1.10;;
13571;SDS011;6857;53.484;10.216;2023-07-31T14:31:20;1.37;;;1.23;;
13571;SDS011;6857;53.484;10.216;2023-07-31T14:33:46;1.30;;;1.20;;
13571;SDS011;6857;53.484;10.216;2023-07-31T14:36:12;2.20;;;1.40;;
13571;SDS011;6857;53.484;10.216;2023-07-31T14:38:38;1.50;;;1.40;;
13571;SDS011;6857;53.484;10.216;2023-07-31T14:41:04;3.50;;;2.20;;
13571;SDS011;6857;53.484;10.216;2023-07-31T14:43:30;2.87;;;2.00;;
13571;SDS011;6857;53.484;10.216;2023-07-31T14:45:56;2.10;;;1.90;;
13571;SDS011;6857;53.484;10.216;2023-07-31T14:48:24;2.83;;;2.27;;
13571;SDS011;6857;53.484;10.216;2023-07-31T14:50:50;2.30;;;2.10;;
13571;SDS011;6857;53.484;10.216;2023-07-31T14:53:16;2.60;;;1.97;;
13571;SDS011;6857;53.484;10.216;2023-07-31T14:55:42;3.27;;;2.97;;
13571;SDS011;6857;53.484;10.216;2023-07-31T14:58:08;5.67;;;3.83;;
13571;SDS011;6857;53.484;10.216;2023-07-31T15:00:35;3.13;;;2.90;;